sensor_id;sensor_type;location;lat;lon;timestamp;temperature;humidity
62809;DHT22;48848;39.002;-94.584;2023-06-10T00:00:35;23.00;42.10
62809;DHT22;48848;39.002;-94.584;2023-06-10T00:03:01;23.00;42.00
62809;DHT22;48848;39.002;-94.584;2023-06-10T00:05:27;23.00;41.90
62809;DHT22;48848;39.002;-94.584;2023-06-10T00:07:55;23.00;41.60
62809;DHT22;48848;39.002;-94.584;2023-06-10T00:10:21;22.90;41.70
62809;DHT22;48848;39.002;-94.584;2023-06-10T00:12:47;23.00;41.40
62809;DHT22;48848;39.002;-94.584;2023-06-10T00:15:13;22.90;41.80
62809;DHT22;48848;39.002;-94.584;2023-06-10T00:17:39;22.90;41.60
62809;DHT22;48848;39.002;-94.584;2023-06-10T00:20:07;22.90;41.60
62809;DHT22;48848;39.002;-94.584;2023-06-10T00:22:34;22.90;41.60
62809;DHT22;48848;39.002;-94.584;2023-06-10T00:25:00;22.90;41.70
62809;DHT22;48848;39.002;-94.584;2023-06-10T00:27:26;22.90;41.60
62809;DHT22;48848;39.002;-94.584;2023-06-10T00:29:56;22.90;41.30
62809;DHT22;48848;39.002;-94.584;2023-06-10T00:32:22;22.80;41.50
62809;DHT22;48848;39.002;-94.584;2023-06-10T00:34:48;22.80;41.30
62809;DHT22;48848;39.002;-94.584;2023-06-10T00:37:14;22.80;41.30
62809;DHT22;48848;39.002;-94.584;2023-06-10T00:39:40;22.80;41.20
62809;DHT22;48848;39.002;-94.584;2023-06-10T00:42:06;22.80;41.10
62809;DHT22;48848;39.002;-94.584;2023-06-10T00:44:32;22.70;41.10
62809;DHT22;48848;39.002;-94.584;2023-06-10T00:46:58;22.70;40.90
62809;DHT22;48848;39.002;-94.584;2023-06-10T00:49:24;22.70;41.10
62809;DHT22;48848;39.002;-94.584;2023-06-10T00:51:50;22.70;40.80
62809;DHT22;48848;39.002;-94.584;2023-06-10T00:54:17;22.60;41.00
62809;DHT22;48848;39.002;-94.584;2023-06-10T00:56:43;22.60;40.90
62809;DHT22;48848;39.002;-94.584;2023-06-10T00:59:09;22.70;41.10
62809;DHT22;48848;39.002;-94.584;2023-06-10T01:01:35;22.60;41.10
62809;DHT22;48848;39.002;-94.584;2023-06-10T01:04:03;22.60;40.70
62809;DHT22;48848;39.002;-94.584;2023-06-10T01:08:56;22.60;40.90
62809;DHT22;48848;39.002;-94.584;2023-06-10T01:11:28;22.60;40.90
62809;DHT22;48848;39.002;-94.584;2023-06-10T01:13:55;22.60;41.30
62809;DHT22;48848;39.002;-94.584;2023-06-10T01:16:21;22.50;40.90
62809;DHT22;48848;39.002;-94.584;2023-06-10T01:18:47;22.50;40.90
62809;DHT22;48848;39.002;-94.584;2023-06-10T01:21:18;22.50;40.80
62809;DHT22;48848;39.002;-94.584;2023-06-10T01:23:44;22.50;40.90
62809;DHT22;48848;39.002;-94.584;2023-06-10T01:26:10;22.50;40.90
62809;DHT22;48848;39.002;-94.584;2023-06-10T01:28:44;22.50;40.70
62809;DHT22;48848;39.002;-94.584;2023-06-10T01:33:59;22.40;40.50
62809;DHT22;48848;39.002;-94.584;2023-06-10T01:36:25;22.50;40.60
62809;DHT22;48848;39.002;-94.584;2023-06-10T01:38:52;22.40;40.50
62809;DHT22;48848;39.002;-94.584;2023-06-10T01:41:19;22.40;40.40
62809;DHT22;48848;39.002;-94.584;2023-06-10T01:43:46;22.40;40.50
62809;DHT22;48848;39.002;-94.584;2023-06-10T01:46:13;22.40;40.40
62809;DHT22;48848;39.002;-94.584;2023-06-10T01:48:40;22.30;40.50
62809;DHT22;48848;39.002;-94.584;2023-06-10T01:51:06;22.30;40.30
62809;DHT22;48848;39.002;-94.584;2023-06-10T01:53:32;22.30;40.40
62809;DHT22;48848;39.002;-94.584;2023-06-10T01:55:58;22.30;40.40
62809;DHT22;48848;39.002;-94.584;2023-06-10T01:58:24;22.20;40.30
62809;DHT22;48848;39.002;-94.584;2023-06-10T02:00:50;22.20;40.30
62809;DHT22;48848;39.002;-94.584;2023-06-10T02:03:16;22.20;40.40
62809;DHT22;48848;39.002;-94.584;2023-06-10T02:05:42;22.20;40.40
62809;DHT22;48848;39.002;-94.584;2023-06-10T02:08:08;22.20;40.60
62809;DHT22;48848;39.002;-94.584;2023-06-10T02:10:34;22.10;40.20
62809;DHT22;48848;39.002;-94.584;2023-06-10T02:13:00;22.10;40.60
62809;DHT22;48848;39.002;-94.584;2023-06-10T02:15:26;21.90;40.00
62809;DHT22;48848;39.002;-94.584;2023-06-10T02:17:52;21.90;40.50
62809;DHT22;48848;39.002;-94.584;2023-06-10T02:20:18;22.00;40.30
62809;DHT22;48848;39.002;-94.584;2023-06-10T02:22:44;22.00;40.50
62809;DHT22;48848;39.002;-94.584;2023-06-10T02:25:10;22.00;40.20
62809;DHT22;48848;39.002;-94.584;2023-06-10T02:27:36;22.00;40.10
62809;DHT22;48848;39.002;-94.584;2023-06-10T02:30:02;22.00;40.10
62809;DHT22;48848;39.002;-94.584;2023-06-10T02:32:27;21.90;40.20
62809;DHT22;48848;39.002;-94.584;2023-06-10T02:34:53;22.00;40.20
62809;DHT22;48848;39.002;-94.584;2023-06-10T02:37:19;21.90;40.20
62809;DHT22;48848;39.002;-94.584;2023-06-10T02:39:46;21.90;40.10
62809;DHT22;48848;39.002;-94.584;2023-06-10T02:42:11;21.90;40.20
62809;DHT22;48848;39.002;-94.584;2023-06-10T02:44:37;21.90;40.00
62809;DHT22;48848;39.002;-94.584;2023-06-10T02:47:03;21.80;40.00
62809;DHT22;48848;39.002;-94.584;2023-06-10T02:49:29;21.90;40.10
62809;DHT22;48848;39.002;-94.584;2023-06-10T02:51:55;21.80;40.10
62809;DHT22;48848;39.002;-94.584;2023-06-10T02:54:22;21.80;40.00
62809;DHT22;48848;39.002;-94.584;2023-06-10T02:56:48;21.80;39.90
62809;DHT22;48848;39.002;-94.584;2023-06-10T02:59:14;21.80;40.00
62809;DHT22;48848;39.002;-94.584;2023-06-10T03:01:41;21.70;39.90
62809;DHT22;48848;39.002;-94.584;2023-06-10T03:04:07;21.70;40.00
62809;DHT22;48848;39.002;-94.584;2023-06-10T03:06:33;21.70;40.00
62809;DHT22;48848;39.002;-94.584;2023-06-10T03:09:02;21.70;40.00
62809;DHT22;48848;39.002;-94.584;2023-06-10T03:11:29;21.60;40.10
62809;DHT22;48848;39.002;-94.584;2023-06-10T03:13:56;21.70;40.10
62809;DHT22;48848;39.002;-94.584;2023-06-10T03:16:22;21.60;40.00
62809;DHT22;48848;39.002;-94.584;2023-06-10T03:18:48;21.60;40.00
62809;DHT22;48848;39.002;-94.584;2023-06-10T03:21:14;21.60;39.90
62809;DHT22;48848;39.002;-94.584;2023-06-10T03:23:40;21.60;40.10
62809;DHT22;48848;39.002;-94.584;2023-06-10T03:26:06;21.50;40.10
62809;DHT22;48848;39.002;-94.584;2023-06-10T03:28:33;21.50;40.00
62809;DHT22;48848;39.002;-94.584;2023-06-10T03:30:58;21.50;40.00
62809;DHT22;48848;39.002;-94.584;2023-06-10T03:33:24;21.50;40.00
62809;DHT22;48848;39.002;-94.584;2023-06-10T03:35:51;21.50;40.20
62809;DHT22;48848;39.002;-94.584;2023-06-10T03:38:17;21.50;39.90
62809;DHT22;48848;39.002;-94.584;2023-06-10T03:40:43;21.50;39.90
62809;DHT22;48848;39.002;-94.584;2023-06-10T03:43:09;21.40;39.90
62809;DHT22;48848;39.002;-94.584;2023-06-10T03:45:35;21.40;40.00
62809;DHT22;48848;39.002;-94.584;2023-06-10T03:48:01;21.40;40.10
62809;DHT22;48848;39.002;-94.584;2023-06-10T03:50:28;21.40;40.00
62809;DHT22;48848;39.002;-94.584;2023-06-10T03:52:54;21.40;39.90
62809;DHT22;48848;39.002;-94.584;2023-06-10T03:55:20;21.40;40.00
62809;DHT22;48848;39.002;-94.584;2023-06-10T03:57:47;21.40;40.00
62809;DHT22;48848;39.002;-94.584;2023-06-10T04:00:14;21.30;40.00
62809;DHT22;48848;39.002;-94.584;2023-06-10T04:02:41;21.30;40.00
62809;DHT22;48848;39.002;-94.584;2023-06-10T04:05:15;21.30;40.00
62809;DHT22;48848;39.002;-94.584;2023-06-10T04:07:44;21.30;40.10
62809;DHT22;48848;39.002;-94.584;2023-06-10T04:10:11;21.30;40.20
62809;DHT22;48848;39.002;-94.584;2023-06-10T04:12:37;21.30;40.00
62809;DHT22;48848;39.002;-94.584;2023-06-10T04:15:04;21.30;40.10
62809;DHT22;48848;39.002;-94.584;2023-06-10T04:17:30;21.30;40.90
62809;DHT22;48848;39.002;-94.584;2023-06-10T04:19:56;21.20;40.20
62809;DHT22;48848;39.002;-94.584;2023-06-10T04:22:22;21.20;40.00
62809;DHT22;48848;39.002;-94.584;2023-06-10T04:24:48;21.10;40.00
62809;DHT22;48848;39.002;-94.584;2023-06-10T04:27:14;21.20;40.10
62809;DHT22;48848;39.002;-94.584;2023-06-10T04:29:40;21.10;40.10
62809;DHT22;48848;39.002;-94.584;2023-06-10T04:32:06;21.10;39.90
62809;DHT22;48848;39.002;-94.584;2023-06-10T04:34:36;21.20;42.20
62809;DHT22;48848;39.002;-94.584;2023-06-10T04:37:01;21.20;42.40
62809;DHT22;48848;39.002;-94.584;2023-06-10T04:39:28;21.20;42.00
62809;DHT22;48848;39.002;-94.584;2023-06-10T04:41:54;21.30;41.80
62809;DHT22;48848;39.002;-94.584;2023-06-10T04:44:20;21.40;41.60
62809;DHT22;48848;39.002;-94.584;2023-06-10T04:46:46;21.50;41.70
62809;DHT22;48848;39.002;-94.584;2023-06-10T04:49:13;21.60;41.80
62809;DHT22;48848;39.002;-94.584;2023-06-10T04:51:41;21.60;41.90
62809;DHT22;48848;39.002;-94.584;2023-06-10T04:54:07;21.70;41.90
62809;DHT22;48848;39.002;-94.584;2023-06-10T04:56:33;21.70;41.90
62809;DHT22;48848;39.002;-94.584;2023-06-10T04:58:59;21.80;42.00
62809;DHT22;48848;39.002;-94.584;2023-06-10T05:01:25;21.80;42.10
62809;DHT22;48848;39.002;-94.584;2023-06-10T05:03:53;21.90;42.10
62809;DHT22;48848;39.002;-94.584;2023-06-10T05:06:18;22.00;42.00
62809;DHT22;48848;39.002;-94.584;2023-06-10T05:08:44;22.10;42.00
62809;DHT22;48848;39.002;-94.584;2023-06-10T05:11:10;22.10;41.90
62809;DHT22;48848;39.002;-94.584;2023-06-10T05:13:36;22.20;42.00
62809;DHT22;48848;39.002;-94.584;2023-06-10T05:16:02;22.20;42.00
62809;DHT22;48848;39.002;-94.584;2023-06-10T05:18:28;22.30;42.30
62809;DHT22;48848;39.002;-94.584;2023-06-10T05:20:54;22.60;40.50
62809;DHT22;48848;39.002;-94.584;2023-06-10T05:23:20;22.60;39.60
62809;DHT22;48848;39.002;-94.584;2023-06-10T05:25:46;22.40;39.50
62809;DHT22;48848;39.002;-94.584;2023-06-10T05:28:12;22.30;39.40
62809;DHT22;48848;39.002;-94.584;2023-06-10T05:30:37;22.20;42.70
62809;DHT22;48848;39.002;-94.584;2023-06-10T05:33:04;22.20;47.60
62809;DHT22;48848;39.002;-94.584;2023-06-10T05:35:30;22.30;48.10
62809;DHT22;48848;39.002;-94.584;2023-06-10T05:37:56;22.00;45.80
62809;DHT22;48848;39.002;-94.584;2023-06-10T05:40:22;22.00;45.60
62809;DHT22;48848;39.002;-94.584;2023-06-10T05:42:47;22.10;44.90
62809;DHT22;48848;39.002;-94.584;2023-06-10T05:45:13;22.10;44.60
62809;DHT22;48848;39.002;-94.584;2023-06-10T05:47:39;22.20;44.30
62809;DHT22;48848;39.002;-94.584;2023-06-10T05:50:06;22.30;44.10
62809;DHT22;48848;39.002;-94.584;2023-06-10T05:52:35;22.30;44.10
62809;DHT22;48848;39.002;-94.584;2023-06-10T05:55:04;22.30;44.20
62809;DHT22;48848;39.002;-94.584;2023-06-10T05:57:30;22.40;44.20
62809;DHT22;48848;39.002;-94.584;2023-06-10T05:59:56;22.40;44.40
62809;DHT22;48848;39.002;-94.584;2023-06-10T06:02:22;22.40;44.20
62809;DHT22;48848;39.002;-94.584;2023-06-10T06:04:48;22.50;44.20
62809;DHT22;48848;39.002;-94.584;2023-06-10T06:07:13;22.60;44.10
62809;DHT22;48848;39.002;-94.584;2023-06-10T06:09:39;22.60;44.20
62809;DHT22;48848;39.002;-94.584;2023-06-10T06:12:05;22.90;42.10
62809;DHT22;48848;39.002;-94.584;2023-06-10T06:14:32;23.00;40.60
62809;DHT22;48848;39.002;-94.584;2023-06-10T06:17:02;22.80;40.00
62809;DHT22;48848;39.002;-94.584;2023-06-10T06:19:28;22.70;40.10
62809;DHT22;48848;39.002;-94.584;2023-06-10T06:21:54;22.50;39.80
62809;DHT22;48848;39.002;-94.584;2023-06-10T06:24:20;22.40;39.90
62809;DHT22;48848;39.002;-94.584;2023-06-10T06:26:45;22.30;41.90
62809;DHT22;48848;39.002;-94.584;2023-06-10T06:29:11;22.30;48.10
62809;DHT22;48848;39.002;-94.584;2023-06-10T06:31:37;22.40;48.90
62809;DHT22;48848;39.002;-94.584;2023-06-10T06:34:03;22.40;46.20
62809;DHT22;48848;39.002;-94.584;2023-06-10T06:36:29;22.10;46.20
62809;DHT22;48848;39.002;-94.584;2023-06-10T06:38:55;22.10;45.90
62809;DHT22;48848;39.002;-94.584;2023-06-10T06:41:21;22.10;45.60
62809;DHT22;48848;39.002;-94.584;2023-06-10T06:43:47;22.30;45.10
62809;DHT22;48848;39.002;-94.584;2023-06-10T06:46:13;22.40;44.80
62809;DHT22;48848;39.002;-94.584;2023-06-10T06:48:39;22.40;44.50
62809;DHT22;48848;39.002;-94.584;2023-06-10T06:51:05;22.60;44.50
62809;DHT22;48848;39.002;-94.584;2023-06-10T06:53:31;22.60;44.40
62809;DHT22;48848;39.002;-94.584;2023-06-10T06:55:56;22.60;44.30
62809;DHT22;48848;39.002;-94.584;2023-06-10T06:58:22;22.60;44.20
62809;DHT22;48848;39.002;-94.584;2023-06-10T07:00:48;22.60;44.50
62809;DHT22;48848;39.002;-94.584;2023-06-10T07:03:14;22.60;44.50
62809;DHT22;48848;39.002;-94.584;2023-06-10T07:05:40;22.70;44.50
62809;DHT22;48848;39.002;-94.584;2023-06-10T07:08:06;22.60;44.50
62809;DHT22;48848;39.002;-94.584;2023-06-10T07:10:32;22.70;44.50
62809;DHT22;48848;39.002;-94.584;2023-06-10T07:12:58;22.60;44.50
62809;DHT22;48848;39.002;-94.584;2023-06-10T07:15:24;22.70;44.50
62809;DHT22;48848;39.002;-94.584;2023-06-10T07:17:50;22.80;44.30
62809;DHT22;48848;39.002;-94.584;2023-06-10T07:20:16;22.80;44.20
62809;DHT22;48848;39.002;-94.584;2023-06-10T07:22:42;22.90;44.10
62809;DHT22;48848;39.002;-94.584;2023-06-10T07:25:08;23.00;44.10
62809;DHT22;48848;39.002;-94.584;2023-06-10T07:27:33;22.90;44.00
62809;DHT22;48848;39.002;-94.584;2023-06-10T07:30:01;23.00;44.10
62809;DHT22;48848;39.002;-94.584;2023-06-10T07:32:27;22.90;44.00
62809;DHT22;48848;39.002;-94.584;2023-06-10T07:34:53;22.90;44.30
62809;DHT22;48848;39.002;-94.584;2023-06-10T07:37:19;22.90;44.30
62809;DHT22;48848;39.002;-94.584;2023-06-10T07:39:45;22.80;44.30
62809;DHT22;48848;39.002;-94.584;2023-06-10T07:42:11;22.90;44.60
62809;DHT22;48848;39.002;-94.584;2023-06-10T07:44:37;22.90;44.50
62809;DHT22;48848;39.002;-94.584;2023-06-10T07:47:03;22.90;44.50
62809;DHT22;48848;39.002;-94.584;2023-06-10T07:49:29;22.90;44.60
62809;DHT22;48848;39.002;-94.584;2023-06-10T07:51:55;22.90;44.50
62809;DHT22;48848;39.002;-94.584;2023-06-10T07:54:21;23.00;44.40
62809;DHT22;48848;39.002;-94.584;2023-06-10T07:56:47;23.00;44.20
62809;DHT22;48848;39.002;-94.584;2023-06-10T07:59:13;23.00;44.50
62809;DHT22;48848;39.002;-94.584;2023-06-10T08:01:39;23.10;44.30
62809;DHT22;48848;39.002;-94.584;2023-06-10T08:04:06;23.20;44.40
62809;DHT22;48848;39.002;-94.584;2023-06-10T08:06:32;23.10;44.10
62809;DHT22;48848;39.002;-94.584;2023-06-10T08:08:58;23.10;44.30
62809;DHT22;48848;39.002;-94.584;2023-06-10T08:11:25;23.00;44.40
62809;DHT22;48848;39.002;-94.584;2023-06-10T08:13:53;23.00;44.50
62809;DHT22;48848;39.002;-94.584;2023-06-10T08:16:19;23.00;44.70
62809;DHT22;48848;39.002;-94.584;2023-06-10T08:18:45;23.00;44.60
62809;DHT22;48848;39.002;-94.584;2023-06-10T08:21:11;23.10;44.60
62809;DHT22;48848;39.002;-94.584;2023-06-10T08:23:37;23.10;44.50
62809;DHT22;48848;39.002;-94.584;2023-06-10T08:26:03;23.10;44.60
62809;DHT22;48848;39.002;-94.584;2023-06-10T08:28:29;23.20;44.20
62809;DHT22;48848;39.002;-94.584;2023-06-10T08:30:55;23.20;44.20
62809;DHT22;48848;39.002;-94.584;2023-06-10T08:33:20;23.30;43.90
62809;DHT22;48848;39.002;-94.584;2023-06-10T08:35:46;23.60;40.40
62809;DHT22;48848;39.002;-94.584;2023-06-10T08:38:12;23.60;39.60
62809;DHT22;48848;39.002;-94.584;2023-06-10T08:40:38;23.50;39.50
62809;DHT22;48848;39.002;-94.584;2023-06-10T08:43:07;23.40;39.40
62809;DHT22;48848;39.002;-94.584;2023-06-10T08:45:36;23.20;39.10
62809;DHT22;48848;39.002;-94.584;2023-06-10T08:48:03;23.00;39.40
62809;DHT22;48848;39.002;-94.584;2023-06-10T08:50:36;22.80;39.40
62809;DHT22;48848;39.002;-94.584;2023-06-10T08:53:03;22.70;39.40
62809;DHT22;48848;39.002;-94.584;2023-06-10T08:55:35;22.60;39.50
62809;DHT22;48848;39.002;-94.584;2023-06-10T08:58:02;22.50;45.50
62809;DHT22;48848;39.002;-94.584;2023-06-10T09:00:28;22.60;48.60
62809;DHT22;48848;39.002;-94.584;2023-06-10T09:02:57;22.60;45.30
62809;DHT22;48848;39.002;-94.584;2023-06-10T09:05:24;22.60;45.00
62809;DHT22;48848;39.002;-94.584;2023-06-10T09:07:51;22.50;44.40
62809;DHT22;48848;39.002;-94.584;2023-06-10T09:10:17;22.50;44.10
62809;DHT22;48848;39.002;-94.584;2023-06-10T09:12:43;22.50;44.10
62809;DHT22;48848;39.002;-94.584;2023-06-10T09:15:09;22.50;44.20
62809;DHT22;48848;39.002;-94.584;2023-06-10T09:17:38;22.60;44.20
62809;DHT22;48848;39.002;-94.584;2023-06-10T09:20:05;22.60;44.20
62809;DHT22;48848;39.002;-94.584;2023-06-10T09:22:32;22.60;44.30
62809;DHT22;48848;39.002;-94.584;2023-06-10T09:25:02;22.70;44.20
62809;DHT22;48848;39.002;-94.584;2023-06-10T09:27:29;22.60;44.30
62809;DHT22;48848;39.002;-94.584;2023-06-10T09:29:55;22.70;45.30
62809;DHT22;48848;39.002;-94.584;2023-06-10T09:32:23;22.90;44.10
62809;DHT22;48848;39.002;-94.584;2023-06-10T09:34:49;22.90;44.00
62809;DHT22;48848;39.002;-94.584;2023-06-10T09:37:25;22.90;43.80
62809;DHT22;48848;39.002;-94.584;2023-06-10T09:40:00;23.00;43.70
62809;DHT22;48848;39.002;-94.584;2023-06-10T09:42:26;22.90;43.80
62809;DHT22;48848;39.002;-94.584;2023-06-10T09:44:52;22.90;43.80
62809;DHT22;48848;39.002;-94.584;2023-06-10T09:47:21;22.80;44.00
62809;DHT22;48848;39.002;-94.584;2023-06-10T09:49:48;22.80;44.10
62809;DHT22;48848;39.002;-94.584;2023-06-10T09:52:14;22.80;44.20
62809;DHT22;48848;39.002;-94.584;2023-06-10T09:54:46;22.90;44.20
62809;DHT22;48848;39.002;-94.584;2023-06-10T09:57:12;22.80;44.20
62809;DHT22;48848;39.002;-94.584;2023-06-10T09:59:38;22.80;44.30
62809;DHT22;48848;39.002;-94.584;2023-06-10T10:02:04;22.80;45.30
62809;DHT22;48848;39.002;-94.584;2023-06-10T10:04:30;22.90;44.20
62809;DHT22;48848;39.002;-94.584;2023-06-10T10:06:56;22.90;44.20
62809;DHT22;48848;39.002;-94.584;2023-06-10T10:09:24;23.00;44.10
62809;DHT22;48848;39.002;-94.584;2023-06-10T10:11:50;23.00;44.00
62809;DHT22;48848;39.002;-94.584;2023-06-10T10:14:17;23.00;44.00
62809;DHT22;48848;39.002;-94.584;2023-06-10T10:16:43;23.00;44.00
62809;DHT22;48848;39.002;-94.584;2023-06-10T10:19:11;23.00;44.10
62809;DHT22;48848;39.002;-94.584;2023-06-10T10:21:38;23.00;44.30
62809;DHT22;48848;39.002;-94.584;2023-06-10T10:26:33;23.00;44.40
62809;DHT22;48848;39.002;-94.584;2023-06-10T10:31:28;23.00;44.50
62809;DHT22;48848;39.002;-94.584;2023-06-10T10:33:59;23.00;44.60
62809;DHT22;48848;39.002;-94.584;2023-06-10T10:36:27;23.00;44.30
62809;DHT22;48848;39.002;-94.584;2023-06-10T10:38:53;23.00;44.30
62809;DHT22;48848;39.002;-94.584;2023-06-10T10:41:19;23.10;44.20
62809;DHT22;48848;39.002;-94.584;2023-06-10T10:43:46;23.10;45.20
62809;DHT22;48848;39.002;-94.584;2023-06-10T10:46:16;23.10;44.30
62809;DHT22;48848;39.002;-94.584;2023-06-10T10:48:42;23.10;44.50
62809;DHT22;48848;39.002;-94.584;2023-06-10T10:51:09;23.20;44.50
62809;DHT22;48848;39.002;-94.584;2023-06-10T10:53:37;23.10;44.50
62809;DHT22;48848;39.002;-94.584;2023-06-10T10:56:07;23.10;44.60
62809;DHT22;48848;39.002;-94.584;2023-06-10T10:58:33;23.20;44.60
62809;DHT22;48848;39.002;-94.584;2023-06-10T11:00:59;23.10;44.60
62809;DHT22;48848;39.002;-94.584;2023-06-10T11:03:29;23.10;44.70
62809;DHT22;48848;39.002;-94.584;2023-06-10T11:05:58;23.10;44.70
62809;DHT22;48848;39.002;-94.584;2023-06-10T11:10:53;23.20;44.70
62809;DHT22;48848;39.002;-94.584;2023-06-10T11:13:20;23.20;44.70
62809;DHT22;48848;39.002;-94.584;2023-06-10T11:15:50;23.20;44.80
62809;DHT22;48848;39.002;-94.584;2023-06-10T11:26:08;23.30;44.80
62809;DHT22;48848;39.002;-94.584;2023-06-10T11:28:34;23.30;44.90
62809;DHT22;48848;39.002;-94.584;2023-06-10T11:31:00;23.50;44.90
62809;DHT22;48848;39.002;-94.584;2023-06-10T11:33:26;23.80;42.30
62809;DHT22;48848;39.002;-94.584;2023-06-10T11:35:53;23.90;40.20
62809;DHT22;48848;39.002;-94.584;2023-06-10T11:38:19;23.70;39.80
62809;DHT22;48848;39.002;-94.584;2023-06-10T11:40:48;23.60;39.60
62809;DHT22;48848;39.002;-94.584;2023-06-10T11:43:16;23.40;39.60
62809;DHT22;48848;39.002;-94.584;2023-06-10T11:45:42;23.20;39.60
62809;DHT22;48848;39.002;-94.584;2023-06-10T11:48:09;23.10;39.30
62809;DHT22;48848;39.002;-94.584;2023-06-10T11:50:35;23.00;40.70
62809;DHT22;48848;39.002;-94.584;2023-06-10T11:53:02;22.90;46.70
62809;DHT22;48848;39.002;-94.584;2023-06-10T11:55:44;23.00;47.10
62809;DHT22;48848;39.002;-94.584;2023-06-10T11:58:17;22.90;45.90
62809;DHT22;48848;39.002;-94.584;2023-06-10T12:00:44;23.00;45.60
62809;DHT22;48848;39.002;-94.584;2023-06-10T12:03:10;22.90;45.40
62809;DHT22;48848;39.002;-94.584;2023-06-10T12:05:36;22.80;45.90
62809;DHT22;48848;39.002;-94.584;2023-06-10T12:08:11;22.80;46.00
62809;DHT22;48848;39.002;-94.584;2023-06-10T12:10:40;22.80;45.70
62809;DHT22;48848;39.002;-94.584;2023-06-10T12:13:09;22.90;46.10
62809;DHT22;48848;39.002;-94.584;2023-06-10T12:15:35;22.90;46.10
62809;DHT22;48848;39.002;-94.584;2023-06-10T12:18:02;22.90;45.90
62809;DHT22;48848;39.002;-94.584;2023-06-10T12:20:28;22.90;46.10
62809;DHT22;48848;39.002;-94.584;2023-06-10T12:22:55;22.90;45.90
62809;DHT22;48848;39.002;-94.584;2023-06-10T12:25:24;22.90;45.70
62809;DHT22;48848;39.002;-94.584;2023-06-10T12:27:54;23.00;45.70
62809;DHT22;48848;39.002;-94.584;2023-06-10T12:30:21;22.90;46.00
62809;DHT22;48848;39.002;-94.584;2023-06-10T12:32:47;22.90;45.80
62809;DHT22;48848;39.002;-94.584;2023-06-10T12:35:16;23.00;46.00
62809;DHT22;48848;39.002;-94.584;2023-06-10T12:37:43;23.00;45.80
62809;DHT22;48848;39.002;-94.584;2023-06-10T12:40:25;23.00;45.80
62809;DHT22;48848;39.002;-94.584;2023-06-10T12:42:51;23.00;46.00
62809;DHT22;48848;39.002;-94.584;2023-06-10T12:45:25;23.10;46.20
62809;DHT22;48848;39.002;-94.584;2023-06-10T12:47:51;23.10;46.10
62809;DHT22;48848;39.002;-94.584;2023-06-10T12:50:17;23.10;46.80
62809;DHT22;48848;39.002;-94.584;2023-06-10T12:52:43;23.00;45.80
62809;DHT22;48848;39.002;-94.584;2023-06-10T12:55:09;23.00;46.20
62809;DHT22;48848;39.002;-94.584;2023-06-10T12:57:35;23.00;46.40
62809;DHT22;48848;39.002;-94.584;2023-06-10T13:00:01;23.00;46.60
62809;DHT22;48848;39.002;-94.584;2023-06-10T13:02:29;23.00;46.30
62809;DHT22;48848;39.002;-94.584;2023-06-10T13:04:55;23.00;46.20
62809;DHT22;48848;39.002;-94.584;2023-06-10T13:07:21;23.10;46.00
62809;DHT22;48848;39.002;-94.584;2023-06-10T13:09:48;23.10;45.80
62809;DHT22;48848;39.002;-94.584;2023-06-10T13:12:14;23.20;46.00
62809;DHT22;48848;39.002;-94.584;2023-06-10T13:14:40;23.20;45.90
62809;DHT22;48848;39.002;-94.584;2023-06-10T13:17:06;23.20;45.90
62809;DHT22;48848;39.002;-94.584;2023-06-10T13:19:34;23.20;46.00
62809;DHT22;48848;39.002;-94.584;2023-06-10T13:22:00;23.30;46.00
62809;DHT22;48848;39.002;-94.584;2023-06-10T13:24:26;23.20;45.80
62809;DHT22;48848;39.002;-94.584;2023-06-10T13:26:52;23.20;46.10
62809;DHT22;48848;39.002;-94.584;2023-06-10T13:29:20;23.20;46.00
62809;DHT22;48848;39.002;-94.584;2023-06-10T13:31:46;23.10;46.20
62809;DHT22;48848;39.002;-94.584;2023-06-10T13:34:12;23.20;46.20
62809;DHT22;48848;39.002;-94.584;2023-06-10T13:36:37;23.20;46.20
62809;DHT22;48848;39.002;-94.584;2023-06-10T13:39:03;23.20;46.50
62809;DHT22;48848;39.002;-94.584;2023-06-10T13:41:29;23.20;46.40
62809;DHT22;48848;39.002;-94.584;2023-06-10T13:43:55;23.30;46.30
62809;DHT22;48848;39.002;-94.584;2023-06-10T13:46:21;23.30;46.00
62809;DHT22;48848;39.002;-94.584;2023-06-10T13:48:47;23.20;46.10
62809;DHT22;48848;39.002;-94.584;2023-06-10T13:51:13;23.30;47.10
62809;DHT22;48848;39.002;-94.584;2023-06-10T13:53:39;23.30;45.90
62809;DHT22;48848;39.002;-94.584;2023-06-10T13:56:05;23.30;45.90
62809;DHT22;48848;39.002;-94.584;2023-06-10T13:58:31;23.40;45.80
62809;DHT22;48848;39.002;-94.584;2023-06-10T14:00:57;23.40;46.40
62809;DHT22;48848;39.002;-94.584;2023-06-10T14:03:24;23.50;47.00
62809;DHT22;48848;39.002;-94.584;2023-06-10T14:05:50;23.40;47.50
62809;DHT22;48848;39.002;-94.584;2023-06-10T14:08:15;23.70;46.30
62809;DHT22;48848;39.002;-94.584;2023-06-10T14:10:42;23.80;46.10
62809;DHT22;48848;39.002;-94.584;2023-06-10T14:13:08;23.80;46.20
62809;DHT22;48848;39.002;-94.584;2023-06-10T14:15:33;23.60;45.80
62809;DHT22;48848;39.002;-94.584;2023-06-10T14:18:00;23.60;46.30
62809;DHT22;48848;39.002;-94.584;2023-06-10T14:20:26;23.70;47.10
62809;DHT22;48848;39.002;-94.584;2023-06-10T14:22:52;23.80;46.10
62809;DHT22;48848;39.002;-94.584;2023-06-10T14:25:18;23.70;46.10
62809;DHT22;48848;39.002;-94.584;2023-06-10T14:27:44;23.60;46.00
62809;DHT22;48848;39.002;-94.584;2023-06-10T14:30:10;23.60;46.40
62809;DHT22;48848;39.002;-94.584;2023-06-10T14:32:36;23.80;45.80
62809;DHT22;48848;39.002;-94.584;2023-06-10T14:35:01;24.00;45.50
62809;DHT22;48848;39.002;-94.584;2023-06-10T14:37:28;23.80;45.90
62809;DHT22;48848;39.002;-94.584;2023-06-10T14:39:54;23.80;45.60
62809;DHT22;48848;39.002;-94.584;2023-06-10T14:42:20;23.80;45.90
62809;DHT22;48848;39.002;-94.584;2023-06-10T14:44:45;23.70;45.90
62809;DHT22;48848;39.002;-94.584;2023-06-10T14:47:12;23.70;45.90
62809;DHT22;48848;39.002;-94.584;2023-06-10T14:49:37;23.70;45.70
62809;DHT22;48848;39.002;-94.584;2023-06-10T14:52:03;23.80;45.90
62809;DHT22;48848;39.002;-94.584;2023-06-10T14:54:29;23.80;45.70
62809;DHT22;48848;39.002;-94.584;2023-06-10T14:56:55;23.70;45.70
62809;DHT22;48848;39.002;-94.584;2023-06-10T14:59:21;23.80;45.70
62809;DHT22;48848;39.002;-94.584;2023-06-10T15:01:47;23.70;45.70
62809;DHT22;48848;39.002;-94.584;2023-06-10T15:04:13;23.60;46.00
62809;DHT22;48848;39.002;-94.584;2023-06-10T15:06:38;23.60;46.00
62809;DHT22;48848;39.002;-94.584;2023-06-10T15:09:05;23.60;46.00
62809;DHT22;48848;39.002;-94.584;2023-06-10T15:11:31;23.60;46.10
62809;DHT22;48848;39.002;-94.584;2023-06-10T15:13:56;23.60;46.20
62809;DHT22;48848;39.002;-94.584;2023-06-10T15:16:23;23.70;46.10
62809;DHT22;48848;39.002;-94.584;2023-06-10T15:18:48;23.70;45.90